^^
Datos históricos de la estación: Murcia-Puente Tocinos
Diario Informe para Marzo 08, 2021 Unidades:  Ambas    Ingés   Métrico
Diario Semanal Mensual Anual
  Máxima: Mínima: Promedio:
Temperatura: 64 °F /  17.8 °C 50.4 °F /  10.2 °C 55.4 °F /  13 °C
Punto de rocio: 52.3 °F /  11.3 °C 44.8 °F /  7.1 °C 48.7 °F /  9.3 °C
Humedad: 95% 50.1% 80%
Velocidad viento: 11.8mph /  19km/h - 4.6mph /  7.4km/h
Racha viento: 20mph /  32.2km/h - -
Viento- - Sur
Presión: 30 in /  1015.6 hPa 29.9 in /  1011.3 hPa -
Precipitación: 0.33 in /  8.4 mm    
 
 
Tabla de datos para Marzo 08, 2021
Hora Temperatura Punto de rocio Presión Viento Velocidad viento Racha viento Humedad Intensidad lluvia(por hora) Nubes
00:04 53.8 °F /  12.1 °C 52.3 °F /  11.3 °C 30in /  1014.2hPa SSO 4mph /  6.5km/h 8.1mph /  13km/h 95% 0in /  0.0mm
00:09 53.8 °F /  12.1 °C 52.3 °F /  11.3 °C 30in /  1014.2hPa Sur 3.8mph /  6.1km/h 6.9mph /  11.1km/h 95% 0in /  0.0mm
00:14 53.8 °F /  12.1 °C 52.3 °F /  11.3 °C 30in /  1014.2hPa Sur 3.6mph /  5.8km/h 7mph /  11.3km/h 94.7% 0in /  0.0mm
00:19 54 °F /  12.2 °C 52.2 °F /  11.2 °C 29.9in /  1014.0hPa SSO 3.9mph /  6.2km/h 6mph /  9.7km/h 94% 0in /  0.0mm
00:24 54 °F /  12.2 °C 52.3 °F /  11.3 °C 29.9in /  1014.0hPa SSO 4mph /  6.5km/h 8.1mph /  13km/h 94% 0in /  0.0mm
00:29 54 °F /  12.2 °C 52.3 °F /  11.3 °C 29.9in /  1014.0hPa SSO 4mph /  6.5km/h 8mph /  12.9km/h 93.9% 0in /  0.0mm
00:34 54 °F /  12.2 °C 52 °F /  11.1 °C 29.9in /  1013.8hPa SSO 4mph /  6.5km/h 6.2mph /  10km/h 93% 0in /  0.0mm
00:39 54.1 °F /  12.3 °C 52.2 °F /  11.2 °C 29.9in /  1013.8hPa SSO 3.8mph /  6.1km/h 6mph /  9.7km/h 93% 0in /  0.0mm
00:44 54.1 °F /  12.3 °C 52.2 °F /  11.2 °C 29.9in /  1013.8hPa SSO 3.6mph /  5.8km/h 6.9mph /  11.1km/h 92.7% 0in /  0.0mm
00:49 54.1 °F /  12.3 °C 52 °F /  11.1 °C 29.9in /  1013.7hPa SSO 3.6mph /  5.8km/h 7mph /  11.3km/h 92% 0in /  0.0mm
00:54 54.1 °F /  12.3 °C 52 °F /  11.1 °C 29.9in /  1013.7hPa SSO 3.6mph /  5.8km/h 6mph /  9.7km/h 92% 0in /  0.0mm
00:59 54.1 °F /  12.3 °C 51.8 °F /  11 °C 29.9in /  1013.7hPa Sur 3.6mph /  5.8km/h 6mph /  9.7km/h 91.6% 0in /  0.0mm
01:04 54.1 °F /  12.3 °C 51.6 °F /  10.9 °C 29.9in /  1013.6hPa Sur 3.6mph /  5.8km/h 5mph /  8km/h 91% 0in /  0.0mm
01:09 54.1 °F /  12.3 °C 51.6 °F /  10.9 °C 29.9in /  1013.6hPa Sur 3.3mph /  5.3km/h 6.2mph /  10km/h 91% 0in /  0.0mm
01:14 54.1 °F /  12.3 °C 51.6 °F /  10.9 °C 29.9in /  1013.6hPa Sur 3.1mph /  5km/h 6.4mph /  10.3km/h 91% 0in /  0.0mm
01:19 54.1 °F /  12.3 °C 51.6 °F /  10.9 °C 29.9in /  1013.5hPa Sur 3.4mph /  5.5km/h 7mph /  11.3km/h 91% 0in /  0.0mm
01:24 54 °F /  12.2 °C 51.4 °F /  10.8 °C 29.9in /  1013.5hPa SSO 3.6mph /  5.8km/h 7mph /  11.3km/h 91% 0in /  0.0mm
01:29 54 °F /  12.2 °C 51.4 °F /  10.8 °C 29.9in /  1013.5hPa Sur 4mph /  6.5km/h 6.2mph /  10km/h 91% 0in /  0.0mm
01:34 54 °F /  12.2 °C 51.4 °F /  10.8 °C 29.9in /  1013.3hPa SSO 4.3mph /  6.9km/h 6mph /  9.7km/h 91% 0in /  0.0mm
01:39 53.8 °F /  12.1 °C 51.3 °F /  10.7 °C 29.9in /  1013.3hPa SSO 3.9mph /  6.2km/h 6.2mph /  10km/h 91% 0in /  0.0mm
01:44 53.8 °F /  12.1 °C 51.3 °F /  10.7 °C 29.9in /  1013.3hPa SSO 3.6mph /  5.8km/h 6.9mph /  11.1km/h 91% 0in /  0.0mm
01:49 53.8 °F /  12.1 °C 51.1 °F /  10.6 °C 29.9in /  1013.3hPa SSO 4mph /  6.5km/h 7mph /  11.3km/h 90.6% 0in /  0.0mm
01:54 53.8 °F /  12.1 °C 50.9 °F /  10.5 °C 29.9in /  1013.3hPa Sur 4.3mph /  6.9km/h 7mph /  11.3km/h 90% 0in /  0.0mm
01:59 53.8 °F /  12.1 °C 50.9 °F /  10.5 °C 29.9in /  1013.3hPa Sur 4.3mph /  6.9km/h 7.4mph /  11.9km/h 90% 0in /  0.0mm
02:04 53.8 °F /  12.1 °C 50.9 °F /  10.5 °C 29.9in /  1013.3hPa Sur 4.3mph /  6.9km/h 7mph /  11.3km/h 90% 0in /  0.0mm
02:09 53.8 °F /  12.1 °C 50.9 °F /  10.5 °C 29.9in /  1013.3hPa Sur 4.8mph /  7.8km/h 7mph /  11.3km/h 90% 0in /  0.0mm
02:14 53.8 °F /  12.1 °C 50.9 °F /  10.5 °C 29.9in /  1013.3hPa Sur 5.2mph /  8.4km/h 7mph /  11.3km/h 90% 0in /  0.0mm
02:19 53.8 °F /  12.1 °C 50.9 °F /  10.5 °C 29.9in /  1013.3hPa SSO 4.7mph /  7.5km/h 7mph /  11.3km/h 90% 0in /  0.0mm
02:24 53.8 °F /  12.1 °C 50.9 °F /  10.5 °C 29.9in /  1013.3hPa SSO 4.3mph /  6.9km/h 7mph /  11.3km/h 90% 0in /  0.0mm
02:29 53.8 °F /  12.1 °C 50.5 °F /  10.3 °C 29.9in /  1013.3hPa SSO 4.1mph /  6.6km/h 7.4mph /  11.9km/h 89% 0in /  0.0mm
02:34 53.8 °F /  12.1 °C 50.5 °F /  10.3 °C 29.9in /  1013.1hPa SSO 4mph /  6.5km/h 7mph /  11.3km/h 89% 0in /  0.0mm
02:39 53.8 °F /  12.1 °C 50.5 °F /  10.3 °C 29.9in /  1013.1hPa SSO 4.2mph /  6.8km/h 7mph /  11.3km/h 89% 0in /  0.0mm
02:44 53.6 °F /  12 °C 50.2 °F /  10.1 °C 29.9in /  1013.1hPa SSO 4.3mph /  6.9km/h 7mph /  11.3km/h 88.1% 0in /  0.0mm
02:49 53.6 °F /  12 °C 50.2 °F /  10.1 °C 29.9in /  1012.9hPa SSO 4.1mph /  6.6km/h 7mph /  11.3km/h 88% 0in /  0.0mm
02:54 53.6 °F /  12 °C 50 °F /  10 °C 29.9in /  1012.9hPa SSO 4mph /  6.5km/h 6.9mph /  11.1km/h 88% 0in /  0.0mm
02:59 53.4 °F /  11.9 °C 50 °F /  10 °C 29.9in /  1012.9hPa SSO 4mph /  6.5km/h 7mph /  11.3km/h 88% 0in /  0.0mm
03:04 53.4 °F /  11.9 °C 49.8 °F /  9.9 °C 29.9in /  1012.7hPa Sur 4mph /  6.5km/h 7mph /  11.3km/h 87.6% 0in /  0.0mm
03:09 53.4 °F /  11.9 °C 49.6 °F /  9.8 °C 29.9in /  1012.7hPa Sur 4.2mph /  6.8km/h 7mph /  11.3km/h 87% 0in /  0.0mm
03:14 53.4 °F /  11.9 °C 49.8 °F /  9.9 °C 29.9in /  1012.7hPa Sur 4.3mph /  6.9km/h 7mph /  11.3km/h 87.4% 0in /  0.0mm
03:19 53.4 °F /  11.9 °C 50 °F /  10 °C 29.9in /  1012.5hPa Sur 4.1mph /  6.6km/h 6.9mph /  11.1km/h 88% 0in /  0.0mm
03:24 53.2 °F /  11.8 °C 49.8 °F /  9.9 °C 29.9in /  1012.5hPa Sur 4mph /  6.4km/h 5.8mph /  9.3km/h 88% 0in /  0.0mm
03:29 53.2 °F /  11.8 °C 49.8 °F /  9.9 °C 29.9in /  1012.5hPa Sur 4mph /  6.5km/h 6.2mph /  10km/h 88% 0in /  0.0mm
03:34 53.2 °F /  11.8 °C 49.8 °F /  9.9 °C 29.9in /  1012.4hPa Sur 4mph /  6.5km/h 6mph /  9.7km/h 88% 0in /  0.0mm
03:39 53.2 °F /  11.8 °C 49.8 °F /  9.9 °C 29.9in /  1012.4hPa Sur 3.8mph /  6.1km/h 6mph /  9.7km/h 88% 0in /  0.0mm
03:44 53.1 °F /  11.7 °C 49.6 °F /  9.8 °C 29.9in /  1012.4hPa Sur 3.6mph /  5.8km/h 5.9mph /  9.5km/h 88% 0in /  0.0mm
03:49 53.1 °F /  11.7 °C 49.6 °F /  9.8 °C 29.9in /  1012.3hPa Sur 3.6mph /  5.8km/h 6mph /  9.7km/h 88% 0in /  0.0mm
03:54 52.9 °F /  11.6 °C 49.5 °F /  9.7 °C 29.9in /  1012.3hPa Sur 3.6mph /  5.8km/h 6mph /  9.7km/h 88% 0in /  0.0mm
03:59 52.9 °F /  11.6 °C 49.3 °F /  9.6 °C 29.9in /  1012.3hPa Sur 3.9mph /  6.2km/h 6.2mph /  10km/h 88% 0in /  0.0mm
04:04 52.7 °F /  11.5 °C 49.3 °F /  9.6 °C 29.9in /  1012.1hPa Sur 4mph /  6.5km/h 6mph /  9.7km/h 88.2% 0in /  0.0mm
04:09 52.7 °F /  11.5 °C 49.5 °F /  9.7 °C 29.9in /  1012.1hPa Sur 3.4mph /  5.5km/h 5.9mph /  9.5km/h 89% 0in /  0.0mm
04:14 52.5 °F /  11.4 °C 49.5 °F /  9.7 °C 29.9in /  1012.1hPa SSO 3.1mph /  5km/h 6.9mph /  11.1km/h 89% 0in /  0.0mm
04:19 52.5 °F /  11.4 °C 49.5 °F /  9.7 °C 29.9in /  1012.1hPa SSO 3.9mph /  6.2km/h 7mph /  11.3km/h 89% 0in /  0.0mm
04:24 52.5 °F /  11.4 °C 49.5 °F /  9.7 °C 29.9in /  1012.1hPa SSO 4.3mph /  6.9km/h 6mph /  9.7km/h 89% 0in /  0.0mm
04:29 52.5 °F /  11.4 °C 49.1 °F /  9.5 °C 29.9in /  1012.1hPa SSO 3.9mph /  6.2km/h 6mph /  9.7km/h 88.3% 0in /  0.0mm
04:34 52.5 °F /  11.4 °C 49.1 °F /  9.5 °C 29.9in /  1012.0hPa SSO 3.6mph /  5.8km/h 5mph /  8km/h 88% 0in /  0.0mm
04:39 52.5 °F /  11.4 °C 49.1 °F /  9.5 °C 29.9in /  1012.0hPa SSO 3.3mph /  5.3km/h 5mph /  8km/h 88% 0in /  0.0mm
04:44 52.3 °F /  11.3 °C 48.9 °F /  9.4 °C 29.9in /  1012.1hPa SO 3.1mph /  5km/h 5mph /  8km/h 88% 0in /  0.0mm
04:49 52.3 °F /  11.3 °C 48.9 °F /  9.4 °C 29.9in /  1012.1hPa SO 2.7mph /  4.3km/h 5mph /  8km/h 88% 0in /  0.0mm
04:54 52.3 °F /  11.3 °C 48.9 °F /  9.4 °C 29.9in /  1012.1hPa SO 2.4mph /  3.9km/h 3mph /  4.8km/h 88% 0in /  0.0mm
04:59 52.3 °F /  11.3 °C 49.1 °F /  9.5 °C 29.9in /  1012.1hPa SO 2mph /  3.2km/h 2.4mph /  3.9km/h 88.6% 0in /  0.0mm
05:04 52.2 °F /  11.2 °C 48.9 °F /  9.4 °C 29.9in /  1011.9hPa OSO 1.8mph /  2.9km/h 3.6mph /  5.8km/h 88.8% 0in /  0.0mm
05:09 52 °F /  11.1 °C 48.9 °F /  9.4 °C 29.9in /  1011.9hPa Oeste 1.8mph /  2.9km/h 4mph /  6.4km/h 89% 0in /  0.0mm
05:14 52 °F /  11.1 °C 48.7 °F /  9.3 °C 29.9in /  1012.0hPa Oeste 1.8mph /  2.9km/h 4.7mph /  7.6km/h 89% 0in /  0.0mm
05:19 51.6 °F /  10.9 °C 48.6 °F /  9.2 °C 29.9in /  1012.0hPa OSO 1.6mph /  2.5km/h 5.8mph /  9.3km/h 89% 0in /  0.0mm
05:24 51.4 °F /  10.8 °C 48.6 °F /  9.2 °C 29.9in /  1012.0hPa SO 1.4mph /  2.2km/h 6.9mph /  11.1km/h 89.8% 0in /  0.0mm
05:29 51.4 °F /  10.8 °C 48.6 °F /  9.2 °C 29.9in /  1012.0hPa OSO 3mph /  4.9km/h 7mph /  11.3km/h 90% 0in /  0.0mm
05:34 51.3 °F /  10.7 °C 48.4 °F /  9.1 °C 29.9in /  1012.0hPa OSO 4mph /  6.5km/h 6mph /  9.7km/h 90% 0in /  0.0mm
05:39 51.1 °F /  10.6 °C 48.4 °F /  9.1 °C 29.9in /  1012.0hPa OSO 3.4mph /  5.5km/h 6mph /  9.7km/h 90.4% 0in /  0.0mm
05:40 51.1 °F /  10.6 °C 48.6 °F /  9.2 °C 29.9in /  1012.0hPa OSO 3.1mph /  5km/h 6mph /  9.7km/h 91% 0in /  0.0mm
05:49 50.7 °F /  10.4 °C 48.2 °F /  9 °C 29.9in /  1012.1hPa SO 3.4mph /  5.5km/h 6.9mph /  11.1km/h 91% 0in /  0.0mm
05:54 50.7 °F /  10.4 °C 48.2 °F /  9 °C 29.9in /  1012.1hPa SO 3.6mph /  5.8km/h 7mph /  11.3km/h 91% 0in /  0.0mm
05:59 50.9 °F /  10.5 °C 48.4 °F /  9.1 °C 29.9in /  1012.2hPa SO 3.6mph /  5.8km/h 6mph /  9.7km/h 91% 0in /  0.0mm
06:04 50.9 °F /  10.5 °C 48.4 °F /  9.1 °C 29.9in /  1012.2hPa SSO 3.6mph /  5.8km/h 5mph /  8km/h 91% 0in /  0.0mm
06:09 50.9 °F /  10.5 °C 48.4 °F /  9.1 °C 29.9in /  1012.2hPa SSO 3.3mph /  5.3km/h 5.4mph /  8.7km/h 91% 0in /  0.0mm
06:14 51.1 °F /  10.6 °C 48.6 °F /  9.2 °C 29.9in /  1012.2hPa SSO 3.1mph /  5km/h 6mph /  9.7km/h 91% 0in /  0.0mm
06:19 51.1 °F /  10.6 °C 48.4 °F /  9.1 °C 29.9in /  1012.2hPa Sur 3.4mph /  5.5km/h 6mph /  9.7km/h 90.6% 0in /  0.0mm
06:24 51.1 °F /  10.6 °C 48.2 °F /  9 °C 29.9in /  1012.2hPa SSE 3.6mph /  5.8km/h 5.2mph /  8.4km/h 90% 0in /  0.0mm
06:29 50.9 °F /  10.5 °C 48 °F /  8.9 °C 29.9in /  1012.4hPa SSE 3.3mph /  5.3km/h 6.2mph /  10km/h 90% 0in /  0.0mm
06:34 50.5 °F /  10.3 °C 47.8 °F /  8.8 °C 29.9in /  1012.4hPa SSE 3.1mph /  5km/h 6.9mph /  11.1km/h 90% 0in /  0.0mm
06:39 50.4 °F /  10.2 °C 47.5 °F /  8.6 °C 29.9in /  1012.4hPa SSE 3.9mph /  6.2km/h 7mph /  11.3km/h 90% 0in /  0.0mm
06:44 50.4 °F /  10.2 °C 47.7 °F /  8.7 °C 29.9in /  1012.5hPa SSE 4.3mph /  6.9km/h 7.4mph /  11.9km/h 90.8% 0in /  0.0mm
06:49 50.4 °F /  10.2 °C 47.8 °F /  8.8 °C 29.9in /  1012.5hPa SSE 4.9mph /  7.9km/h 7.4mph /  11.9km/h 91% 0in /  0.0mm
06:54 50.4 °F /  10.2 °C 47.8 °F /  8.8 °C 29.9in /  1012.5hPa SE 5.2mph /  8.4km/h 7mph /  11.3km/h 91% 0in /  0.0mm
06:59 50.4 °F /  10.2 °C 47.8 °F /  8.8 °C 29.9in /  1012.6hPa SSE 4.6mph /  7.4km/h 7mph /  11.3km/h 91% 0in /  0.0mm
07:04 50.4 °F /  10.2 °C 47.8 °F /  8.8 °C 29.9in /  1012.6hPa SSE 4.3mph /  6.9km/h 7.4mph /  11.9km/h 91% 0in /  0.0mm
07:09 50.4 °F /  10.2 °C 47.7 °F /  8.7 °C 29.9in /  1012.6hPa SSE 4.5mph /  7.3km/h 7mph /  11.3km/h 90.7% 0in /  0.0mm
07:14 50.4 °F /  10.2 °C 47.5 °F /  8.6 °C 29.9in /  1012.7hPa SSE 4.7mph /  7.6km/h 7mph /  11.3km/h 90% 0in /  0.0mm
07:19 50.4 °F /  10.2 °C 47.5 °F /  8.6 °C 29.9in /  1012.7hPa Sur 4.5mph /  7.2km/h 6.9mph /  11.1km/h 90% 0in /  0.0mm
07:24 50.4 °F /  10.2 °C 47.5 °F /  8.6 °C 29.9in /  1012.7hPa Sur 4.3mph /  6.9km/h 7.4mph /  11.9km/h 90% 0in /  0.0mm
07:29 50.4 °F /  10.2 °C 47.5 °F /  8.6 °C 29.9in /  1012.8hPa SSO 4.8mph /  7.8km/h 8.7mph /  14km/h 90% 0in /  0.0mm
07:34 50.4 °F /  10.2 °C 47.5 °F /  8.6 °C 29.9in /  1012.8hPa SSO 5.2mph /  8.4km/h 9.2mph /  14.8km/h 90% 0in /  0.0mm
07:39 50.5 °F /  10.3 °C 47.7 °F /  8.7 °C 29.9in /  1012.8hPa Sur 5.3mph /  8.6km/h 9mph /  14.5km/h 90% 0in /  0.0mm
07:44 50.5 °F /  10.3 °C 47.8 °F /  8.8 °C 29.9in /  1013.0hPa SSO 5.4mph /  8.7km/h 7mph /  11.3km/h 90% 0in /  0.0mm
07:49 50.7 °F /  10.4 °C 47.8 °F /  8.8 °C 29.9in /  1013.0hPa Sur 4.5mph /  7.2km/h 6mph /  9.7km/h 90% 0in /  0.0mm
07:54 50.7 °F /  10.4 °C 47.8 °F /  8.8 °C 29.9in /  1013.0hPa SSE 4mph /  6.5km/h 5.8mph /  9.3km/h 90% 0in /  0.0mm
07:59 50.7 °F /  10.4 °C 48 °F /  8.9 °C 29.9in /  1013.1hPa SE 3.7mph /  6km/h 6.9mph /  11.1km/h 89.9% 0in /  0.0mm
08:04 51.1 °F /  10.6 °C 48.2 °F /  9 °C 29.9in /  1013.1hPa SSE 3.6mph /  5.8km/h 7mph /  11.3km/h 89.8% 0in /  0.0mm
08:09 51.1 °F /  10.6 °C 48 °F /  8.9 °C 29.9in /  1013.1hPa SSE 4mph /  6.5km/h 7.4mph /  11.9km/h 89% 0in /  0.0mm
08:14 51.1 °F /  10.6 °C 48 °F /  8.9 °C 29.9in /  1013.1hPa Sur 4.3mph /  6.9km/h 8.7mph /  14km/h 89% 0in /  0.0mm
08:19 51.3 °F /  10.7 °C 48 °F /  8.9 °C 29.9in /  1013.1hPa SSO 5mph /  8km/h 9.2mph /  14.8km/h 89% 0in /  0.0mm
08:24 51.3 °F /  10.7 °C 48 °F /  8.9 °C 29.9in /  1013.1hPa SSO 5.4mph /  8.7km/h 9.2mph /  14.8km/h 88.4% 0in /  0.0mm
08:29 51.4 °F /  10.8 °C 48 °F /  8.9 °C 29.9in /  1013.1hPa SO 5.4mph /  8.7km/h 9.2mph /  14.8km/h 88% 0in /  0.0mm
08:34 51.4 °F /  10.8 °C 48.2 °F /  9 °C 29.9in /  1013.0hPa SO 5.4mph /  8.7km/h 9mph /  14.5km/h 88% 0in /  0.0mm
08:39 51.6 °F /  10.9 °C 48.2 °F /  9 °C 29.9in /  1013.0hPa SO 5.3mph /  8.5km/h 7mph /  11.3km/h 88% 0in /  0.0mm
08:44 51.8 °F /  11 °C 48.2 °F /  9 °C 29.9in /  1013.1hPa SO 5.2mph /  8.4km/h 7.4mph /  11.9km/h 87.4% 0in /  0.0mm
08:49 52.2 °F /  11.2 °C 48.4 °F /  9.1 °C 29.9in /  1013.1hPa SO 4.4mph /  7.1km/h 7mph /  11.3km/h 87% 0in /  0.0mm
08:54 52.3 °F /  11.3 °C 48.4 °F /  9.1 °C 29.9in /  1013.1hPa SO 4mph /  6.5km/h 9.2mph /  14.8km/h 86.3% 0in /  0.0mm
08:59 52.3 °F /  11.3 °C 48.4 °F /  9.1 °C 29.9in /  1013.2hPa SO 4.9mph /  7.9km/h 10.2mph /  16.4km/h 85.7% 0in /  0.0mm
09:04 52.7 °F /  11.5 °C 48.2 °F /  9 °C 29.9in /  1013.2hPa SO 5.4mph /  8.7km/h 10.4mph /  16.7km/h 85% 0in /  0.0mm
09:09 53.1 °F /  11.7 °C 48.4 °F /  9.1 °C 29.9in /  1013.2hPa OSO 5.4mph /  8.7km/h 9.2mph /  14.8km/h 84.3% 0in /  0.0mm
09:14 53.2 °F /  11.8 °C 48.6 °F /  9.2 °C 29.9in /  1013.3hPa OSO 5.4mph /  8.7km/h 9mph /  14.5km/h 84% 0in /  0.0mm
09:19 53.4 °F /  11.9 °C 48.6 °F /  9.2 °C 29.9in /  1013.3hPa OSO 5.3mph /  8.5km/h 8.1mph /  13km/h 83.3% 0in /  0.0mm
09:24 53.8 °F /  12.1 °C 48.6 °F /  9.2 °C 29.9in /  1013.3hPa OSO 5.2mph /  8.4km/h 9.7mph /  15.6km/h 82.4% 0in /  0.0mm
09:25 54 °F /  12.2 °C 48.6 °F /  9.2 °C 29.9in /  1013.3hPa SSO 5.2mph /  8.3km/h 10mph /  16.1km/h 82% 0in /  0.0mm
09:34 54.3 °F /  12.4 °C 48.7 °F /  9.3 °C 29.9in /  1013.4hPa SO 5.2mph /  8.4km/h 8.1mph /  13km/h 81.4% 0in /  0.0mm
09:39 54.7 °F /  12.6 °C 48.7 °F /  9.3 °C 29.9in /  1013.4hPa SSO 4.7mph /  7.5km/h 8.1mph /  13km/h 80.3% 0in /  0.0mm
09:44 54.9 °F /  12.7 °C 48.4 °F /  9.1 °C 29.9in /  1013.5hPa SO 4.3mph /  6.9km/h 9.2mph /  14.8km/h 78.7% 0in /  0.0mm
09:49 54.9 °F /  12.7 °C 48.2 °F /  9 °C 29.9in /  1013.5hPa OSO 4.8mph /  7.8km/h 9.7mph /  15.6km/h 78.2% 0in /  0.0mm
09:54 55 °F /  12.8 °C 48.4 °F /  9.1 °C 29.9in /  1013.5hPa OSO 5.2mph /  8.4km/h 10mph /  16.1km/h 78% 0in /  0.0mm
09:59 55.2 °F /  12.9 °C 48.6 °F /  9.2 °C 29.9in /  1013.6hPa SO 5.8mph /  9.4km/h 11.5mph /  18.5km/h 77.9% 0in /  0.0mm
10:04 55.6 °F /  13.1 °C 48.4 °F /  9.1 °C 29.9in /  1013.6hPa OSO 6.2mph /  10km/h 12mph /  19.3km/h 77% 0in /  0.0mm
10:09 55.8 °F /  13.2 °C 48.6 °F /  9.2 °C 29.9in /  1013.6hPa SO 6mph /  9.7km/h 10mph /  16.1km/h 76.9% 0in /  0.0mm
10:14 55.9 °F /  13.3 °C 48.4 °F /  9.1 °C 29.9in /  1013.7hPa SO 5.9mph /  9.5km/h 10.4mph /  16.7km/h 75.8% 0in /  0.0mm
10:19 56.3 °F /  13.5 °C 48.4 °F /  9.1 °C 29.9in /  1013.7hPa SO 5.6mph /  9km/h 10mph /  16.1km/h 74.9% 0in /  0.0mm
10:24 56.7 °F /  13.7 °C 48.4 °F /  9.1 °C 29.9in /  1013.7hPa OSO 5.4mph /  8.7km/h 8.5mph /  13.7km/h 73.8% 0in /  0.0mm
10:29 57 °F /  13.9 °C 48 °F /  8.9 °C 29.9in /  1013.7hPa OSO 4.7mph /  7.6km/h 9mph /  14.5km/h 71.9% 0in /  0.0mm
10:34 57.4 °F /  14.1 °C 47.8 °F /  8.8 °C 29.9in /  1013.6hPa Oeste 4.3mph /  6.9km/h 9.7mph /  15.6km/h 70.3% 0in /  0.0mm
10:39 57.4 °F /  14.1 °C 46.8 °F /  8.2 °C 29.9in /  1013.6hPa Oeste 4.9mph /  7.9km/h 10mph /  16.1km/h 67.8% 0in /  0.0mm
10:44 57.4 °F /  14.1 °C 46.4 °F /  8 °C 29.9in /  1013.7hPa Oeste 5.2mph /  8.4km/h 8.1mph /  13km/h 66.6% 0in /  0.0mm
10:49 57.6 °F /  14.2 °C 45.9 °F /  7.7 °C 29.9in /  1013.7hPa OSO 4.6mph /  7.4km/h 9.2mph /  14.8km/h 65% 0in /  0.0mm
10:54 57.7 °F /  14.3 °C 45.7 °F /  7.6 °C 29.9in /  1013.7hPa SO 4.3mph /  6.9km/h 9.2mph /  14.8km/h 63.9% 0in /  0.0mm
10:59 58.1 °F /  14.5 °C 46 °F /  7.8 °C 29.9in /  1013.7hPa ONO 4.6mph /  7.4km/h 10.4mph /  16.7km/h 64.3% 0in /  0.0mm
11:04 58.1 °F /  14.5 °C 46.6 °F /  8.1 °C 29.9in /  1013.7hPa SO 4.7mph /  7.6km/h 10mph /  16.1km/h 65.5% 0in /  0.0mm
11:09 58.3 °F /  14.6 °C 46.8 °F /  8.2 °C 29.9in /  1013.7hPa SO 4.5mph /  7.2km/h 9mph /  14.5km/h 65.6% 0in /  0.0mm
11:14 58.5 °F /  14.7 °C 46.8 °F /  8.2 °C 29.9in /  1013.8hPa Oeste 4.3mph /  6.9km/h 9.7mph /  15.6km/h 65.1% 0in /  0.0mm
11:19 58.6 °F /  14.8 °C 46.8 °F /  8.2 °C 29.9in /  1013.8hPa ONO 5.3mph /  8.5km/h 10.4mph /  16.7km/h 64.3% 0in /  0.0mm
11:24 58.8 °F /  14.9 °C 46.8 °F /  8.2 °C 29.9in /  1013.8hPa OSO 5.9mph /  9.5km/h 10mph /  16.1km/h 63.9% 0in /  0.0mm
11:29 59.4 °F /  15.2 °C 46.8 °F /  8.2 °C 29.9in /  1013.8hPa OSO 5.2mph /  8.3km/h 7mph /  11.3km/h 63.1% 0in /  0.0mm
11:34 59.7 °F /  15.4 °C 46.2 °F /  7.9 °C 29.9in /  1013.6hPa ONO 4.7mph /  7.6km/h 10.4mph /  16.7km/h 61.1% 0in /  0.0mm
11:39 59.7 °F /  15.4 °C 45.9 °F /  7.7 °C 29.9in /  1013.6hPa NNO 4.7mph /  7.6km/h 10mph /  16.1km/h 59.9% 0in /  0.0mm
11:44 59.9 °F /  15.5 °C 45.7 °F /  7.6 °C 29.9in /  1013.6hPa Oeste 4.7mph /  7.6km/h 10.4mph /  16.7km/h 59.2% 0in /  0.0mm
11:49 59.9 °F /  15.5 °C 45.3 °F /  7.4 °C 29.9in /  1013.6hPa OSO 4.7mph /  7.6km/h 10mph /  16.1km/h 58.4% 0in /  0.0mm
11:54 60.1 °F /  15.6 °C 45.3 °F /  7.4 °C 29.9in /  1013.6hPa SO 4.7mph /  7.6km/h 9.2mph /  14.8km/h 58% 0in /  0.0mm
11:59 60.3 °F /  15.7 °C 45.3 °F /  7.4 °C 29.9in /  1013.6hPa SO 4.3mph /  6.9km/h 9mph /  14.5km/h 57.6% 0in /  0.0mm
12:04 60.4 °F /  15.8 °C 45.1 °F /  7.3 °C 29.9in /  1013.5hPa Oeste 4mph /  6.5km/h 10.4mph /  16.7km/h 56.8% 0in /  0.0mm
12:09 60.4 °F /  15.8 °C 45.1 °F /  7.3 °C 29.9in /  1013.5hPa SO 4.2mph /  6.7km/h 9.7mph /  15.6km/h 57.3% 0in /  0.0mm
12:14 60.4 °F /  15.8 °C 45.7 °F /  7.6 °C 29.9in /  1013.5hPa Oeste 4.3mph /  6.9km/h 10mph /  16.1km/h 58.1% 0in /  0.0mm
12:19 60.6 °F /  15.9 °C 45.9 °F /  7.7 °C 29.9in /  1013.5hPa Oeste 4.1mph /  6.6km/h 10.4mph /  16.7km/h 58.2% 0in /  0.0mm
12:24 60.6 °F /  15.9 °C 46 °F /  7.8 °C 29.9in /  1013.5hPa Oeste 4mph /  6.5km/h 11.5mph /  18.5km/h 58.5% 0in /  0.0mm
12:29 60.6 °F /  15.9 °C 45.9 °F /  7.7 °C 29.9in /  1013.5hPa OSO 5.5mph /  8.9km/h 12mph /  19.3km/h 58.1% 0in /  0.0mm
12:34 60.8 °F /  16 °C 46 °F /  7.8 °C 29.9in /  1013.4hPa SO 6.4mph /  10.3km/h 11.5mph /  18.5km/h 58.4% 0in /  0.0mm
12:39 61.3 °F /  16.3 °C 46.6 °F /  8.1 °C 29.9in /  1013.4hPa Oeste 5.3mph /  8.6km/h 11.5mph /  18.5km/h 58.6% 0in /  0.0mm
12:44 61.3 °F /  16.3 °C 46 °F /  7.8 °C 29.9in /  1013.4hPa ONO 4.7mph /  7.6km/h 12mph /  19.3km/h 57.1% 0in /  0.0mm
12:49 61.3 °F /  16.3 °C 46.2 °F /  7.9 °C 29.9in /  1013.2hPa ESE 5.2mph /  8.3km/h 10mph /  16.1km/h 57.6% 0in /  0.0mm
12:54 61.9 °F /  16.6 °C 46.2 °F /  7.9 °C 29.9in /  1013.2hPa SSO 5.4mph /  8.7km/h 10mph /  16.1km/h 56.7% 0in /  0.0mm
12:59 62.2 °F /  16.8 °C 45.9 °F /  7.7 °C 29.9in /  1013.2hPa ONO 5.7mph /  9.2km/h 12.7mph /  20.4km/h 55.2% 0in /  0.0mm
13:04 62.1 °F /  16.7 °C 45.9 °F /  7.7 °C 29.9in /  1013.1hPa Oeste 5.9mph /  9.5km/h 13mph /  20.9km/h 55.4% 0in /  0.0mm
13:09 62.1 °F /  16.7 °C 45.7 °F /  7.6 °C 29.9in /  1013.1hPa ONO 5.9mph /  9.5km/h 9.2mph /  14.8km/h 55.2% 0in /  0.0mm
13:14 62.2 °F /  16.8 °C 45.7 °F /  7.6 °C 29.9in /  1013.1hPa NNE 5.9mph /  9.5km/h 11.2mph /  18km/h 54.9% 0in /  0.0mm
13:19 62.1 °F /  16.7 °C 45.3 °F /  7.4 °C 29.9in /  1012.9hPa NO 5.2mph /  8.3km/h 12mph /  19.3km/h 54.3% 0in /  0.0mm
13:24 62.1 °F /  16.7 °C 45.7 °F /  7.6 °C 29.9in /  1012.9hPa OSO 4.7mph /  7.6km/h 10.4mph /  16.7km/h 55.1% 0in /  0.0mm
13:29 62.1 °F /  16.7 °C 45.9 °F /  7.7 °C 29.9in /  1012.9hPa SO 4.7mph /  7.6km/h 10mph /  16.1km/h 55.1% 0in /  0.0mm
13:34 62.2 °F /  16.8 °C 45.7 °F /  7.6 °C 29.9in /  1012.8hPa SSO 4.7mph /  7.6km/h 9mph /  14.5km/h 54.6% 0in /  0.0mm
13:39 62.4 °F /  16.9 °C 45.5 °F /  7.5 °C 29.9in /  1012.8hPa SSE 3.7mph /  6km/h 7mph /  11.3km/h 54% 0in /  0.0mm
13:44 62.8 °F /  17.1 °C 46.2 °F /  7.9 °C 29.9in /  1012.8hPa Sur 3.1mph /  5km/h 8.1mph /  13km/h 54.6% 0in /  0.0mm
13:49 63.1 °F /  17.3 °C 46.4 °F /  8 °C 29.9in /  1012.4hPa SE 3.4mph /  5.5km/h 8mph /  12.9km/h 54.3% 0in /  0.0mm
13:54 63.7 °F /  17.6 °C 46 °F /  7.8 °C 29.9in /  1012.4hPa ONO 3.6mph /  5.8km/h 9.2mph /  14.8km/h 52.6% 0in /  0.0mm
13:59 63.7 °F /  17.6 °C 45.9 °F /  7.7 °C 29.9in /  1012.4hPa OSO 3.3mph /  5.3km/h 11.2mph /  18km/h 52.3% 0in /  0.0mm
14:04 63.9 °F /  17.7 °C 46.8 °F /  8.2 °C 29.9in /  1012.1hPa NO 3.1mph /  5km/h 13.8mph /  22.2km/h 53.6% 0in /  0.0mm
14:09 63.9 °F /  17.7 °C 46.4 °F /  8 °C 29.9in /  1012.1hPa NNO 5.2mph /  8.3km/h 14mph /  22.5km/h 53.3% 0in /  0.0mm
14:14 63.3 °F /  17.4 °C 46.6 °F /  8.1 °C 29.9in /  1012.1hPa Oeste 6.4mph /  10.3km/h 13mph /  20.9km/h 54.4% 0in /  0.0mm
14:19 63.3 °F /  17.4 °C 47.1 °F /  8.4 °C 29.9in /  1012.0hPa North 7mph /  11.3km/h 13.8mph /  22.2km/h 55.3% 0in /  0.0mm
14:24 63.3 °F /  17.4 °C 46.8 °F /  8.2 °C 29.9in /  1012.0hPa NNO 7.4mph /  11.9km/h 14mph /  22.5km/h 54.6% 0in /  0.0mm
14:29 63.1 °F /  17.3 °C 45.7 °F /  7.6 °C 29.9in /  1012.0hPa NNE 7.5mph /  12.1km/h 14mph /  22.5km/h 52.6% 0in /  0.0mm
14:34 63.1 °F /  17.3 °C 45.7 °F /  7.6 °C 29.9in /  1011.9hPa NNO 7.6mph /  12.2km/h 8.1mph /  13km/h 53.1% 0in /  0.0mm
14:39 63.3 °F /  17.4 °C 45.9 °F /  7.7 °C 29.9in /  1011.9hPa NE 6.5mph /  10.5km/h 11.5mph /  18.5km/h 53.1% 0in /  0.0mm
14:44 63.3 °F /  17.4 °C 45.9 °F /  7.7 °C 29.9in /  1011.9hPa NE 5.9mph /  9.5km/h 12mph /  19.3km/h 53% 0in /  0.0mm
14:49 63.1 °F /  17.3 °C 45.7 °F /  7.6 °C 29.9in /  1011.7hPa North 5.5mph /  8.8km/h 12mph /  19.3km/h 53% 0in /  0.0mm
14:54 63.1 °F /  17.3 °C 45.3 °F /  7.4 °C 29.9in /  1011.7hPa North 5.2mph /  8.4km/h 11.5mph /  18.5km/h 51.9% 0in /  0.0mm
14:59 63.3 °F /  17.4 °C 45 °F /  7.2 °C 29.9in /  1011.7hPa NNO 5.3mph /  8.6km/h 12mph /  19.3km/h 51% 0in /  0.0mm
15:04 63.3 °F /  17.4 °C 45 °F /  7.2 °C 29.9in /  1011.6hPa North 5.4mph /  8.7km/h 9mph /  14.5km/h 51% 0in /  0.0mm
15:09 63.3 °F /  17.4 °C 44.8 °F /  7.1 °C 29.9in /  1011.6hPa North 4.7mph /  7.6km/h 7.4mph /  11.9km/h 50.8% 0in /  0.0mm
15:14 63.5 °F /  17.5 °C 45 °F /  7.2 °C 29.9in /  1011.6hPa North 4.3mph /  6.9km/h 12.7mph /  20.4km/h 51.1% 0in /  0.0mm
15:19 63.9 °F /  17.7 °C 45 °F /  7.2 °C 29.9in /  1011.3hPa NE 5mph /  8km/h 11.8mph /  19km/h 50.4% 0in /  0.0mm
15:24 63.9 °F /  17.7 °C 45 °F /  7.2 °C 29.9in /  1011.3hPa NNE 5.4mph /  8.7km/h 12mph /  19.3km/h 50.1% 0in /  0.0mm
15:29 64 °F /  17.8 °C 45.9 °F /  7.7 °C 29.9in /  1011.3hPa NNE 5.7mph /  9.2km/h 17.3mph /  27.8km/h 51.4% 0in /  0.0mm
15:34 64 °F /  17.8 °C 46.4 °F /  8 °C 29.9in /  1011.3hPa NNE 5.9mph /  9.5km/h 19.6mph /  31.5km/h 52.6% 0in /  0.0mm
15:39 63.3 °F /  17.4 °C 46.4 °F /  8 °C 29.9in /  1011.3hPa NNE 9.2mph /  14.8km/h 20mph /  32.2km/h 53.9% 0in /  0.0mm
15:44 63 °F /  17.2 °C 46.6 °F /  8.1 °C 29.9in /  1011.4hPa NNE 11.2mph /  18km/h 18mph /  29km/h 55.3% 0in /  0.0mm
15:49 63.1 °F /  17.3 °C 47.1 °F /  8.4 °C 29.9in /  1011.4hPa NNE 10.4mph /  16.8km/h 19mph /  30.6km/h 56% 0in /  0.0mm
15:54 63 °F /  17.2 °C 47.5 °F /  8.6 °C 29.9in /  1011.4hPa NNE 10mph /  16.1km/h 19mph /  30.6km/h 56.9% 0in /  0.0mm
15:59 62.2 °F /  16.8 °C 47.3 °F /  8.5 °C 29.9in /  1011.5hPa NNE 11.2mph /  18km/h 19.7mph /  31.7km/h 57.9% 0in /  0.0mm
16:04 62.1 °F /  16.7 °C 47.5 °F /  8.6 °C 29.9in /  1011.5hPa NE 11.8mph /  19km/h 20mph /  32.2km/h 59% 0in /  0.0mm
16:09 61.7 °F /  16.5 °C 47.1 °F /  8.4 °C 29.9in /  1011.5hPa NE 10.5mph /  16.9km/h 17mph /  27.4km/h 58.8% 0in /  0.0mm
16:14 61.9 °F /  16.6 °C 48 °F /  8.9 °C 29.9in /  1011.6hPa NE 9.7mph /  15.6km/h 16mph /  25.7km/h 60.4% 0in /  0.0mm
16:19 62.2 °F /  16.8 °C 48.9 °F /  9.4 °C 29.9in /  1011.6hPa NE 7.6mph /  12.2km/h 12.5mph /  20.1km/h 61.7% 0in /  0.0mm
16:24 62.2 °F /  16.8 °C 48.4 °F /  9.1 °C 29.9in /  1011.6hPa NE 6.4mph /  10.3km/h 13mph /  20.9km/h 60.4% 0in /  0.0mm
16:29 62.2 °F /  16.8 °C 49.1 °F /  9.5 °C 29.9in /  1011.6hPa Este 7mph /  11.3km/h 14mph /  22.5km/h 62.3% 0in /  0.0mm
16:34 62.1 °F /  16.7 °C 49.6 °F /  9.8 °C 29.9in /  1011.6hPa ESE 7.4mph /  11.9km/h 14mph /  22.5km/h 63.9% 0in /  0.0mm
16:39 61.9 °F /  16.6 °C 49.8 °F /  9.9 °C 29.9in /  1011.6hPa Este 7.4mph /  11.9km/h 14mph /  22.5km/h 64.6% 0in /  0.0mm
16:44 61.5 °F /  16.4 °C 49.6 °F /  9.8 °C 29.9in /  1011.7hPa ENE 7.4mph /  11.9km/h 10.4mph /  16.7km/h 65% 0in /  0.0mm
16:49 61.3 °F /  16.3 °C 49.3 °F /  9.6 °C 29.9in /  1011.7hPa ENE 6.6mph /  10.7km/h 13mph /  20.9km/h 64.6% 0in /  0.0mm
16:54 61.2 °F /  16.2 °C 49.5 °F /  9.7 °C 29.9in /  1011.7hPa Este 6.2mph /  10km/h 13mph /  20.9km/h 65.5% 0in /  0.0mm
16:59 61 °F /  16.1 °C 50 °F /  10 °C 29.9in /  1011.8hPa ENE 6.3mph /  10.2km/h 13mph /  20.9km/h 66.9% 0in /  0.0mm
17:04 60.6 °F /  15.9 °C 49.8 °F /  9.9 °C 29.9in /  1011.8hPa Este 6.4mph /  10.3km/h 14mph /  22.5km/h 67.6% 0in /  0.0mm
17:09 60.4 °F /  15.8 °C 50.4 °F /  10.2 °C 29.9in /  1011.8hPa ESE 6.7mph /  10.8km/h 15mph /  24.1km/h 69.2% 0in /  0.0mm
17:14 59.9 °F /  15.5 °C 50.5 °F /  10.3 °C 29.9in /  1011.9hPa ESE 6.9mph /  11.1km/h 16.3mph /  26.2km/h 71.1% 0in /  0.0mm
17:19 59.2 °F /  15.1 °C 50.5 °F /  10.3 °C 29.9in /  1011.9hPa ESE 8.9mph /  14.3km/h 18.4mph /  29.6km/h 72.9% 0in /  0.0mm
17:24 58.6 °F /  14.8 °C 50 °F /  10 °C 29.9in /  1011.9hPa ESE 10.2mph /  16.4km/h 18.4mph /  29.6km/h 73% 0in /  0.0mm
17:29 58.5 °F /  14.7 °C 50 °F /  10 °C 29.9in /  1012.1hPa ESE 10.8mph /  17.4km/h 18mph /  29km/h 73.1% 0in /  0.0mm
17:34 58.3 °F /  14.6 °C 50 °F /  10 °C 29.9in /  1012.1hPa Este 11.2mph /  18km/h 18.4mph /  29.6km/h 74% 0in /  0.0mm
17:39 57.7 °F /  14.3 °C 49.5 °F /  9.7 °C 29.9in /  1012.1hPa ESE 10.5mph /  16.9km/h 18mph /  29km/h 74% 0in /  0.0mm
17:44 57.4 °F /  14.1 °C 49.3 °F /  9.6 °C 29.9in /  1012.4hPa ESE 10mph /  16.1km/h 18.5mph /  29.8km/h 74.4% 0in /  0.0mm
17:49 57 °F /  13.9 °C 49.6 °F /  9.8 °C 29.9in /  1012.4hPa ESE 10.1mph /  16.3km/h 19mph /  30.6km/h 76.2% 0in /  0.0mm
17:54 56.8 °F /  13.8 °C 49.8 °F /  9.9 °C 29.9in /  1012.4hPa SE 10.2mph /  16.4km/h 18.4mph /  29.6km/h 77% 0in /  0.0mm
17:59 56.8 °F /  13.8 °C 49.6 °F /  9.8 °C 29.9in /  1012.6hPa SE 10.1mph /  16.2km/h 18.4mph /  29.6km/h 77% 0in /  0.0mm
18:04 56.7 °F /  13.7 °C 49.5 °F /  9.7 °C 29.9in /  1012.6hPa SE 10mph /  16.1km/h 18mph /  29km/h 77% 0in /  0.0mm
18:09 56.7 °F /  13.7 °C 49.5 °F /  9.7 °C 29.9in /  1012.6hPa SE 9.2mph /  14.8km/h 13mph /  20.9km/h 77.1% 0in /  0.0mm
18:14 56.7 °F /  13.7 °C 49.5 °F /  9.7 °C 29.9in /  1012.8hPa SE 8.7mph /  14km/h 13.8mph /  22.2km/h 77% 0in /  0.0mm
18:19 56.7 °F /  13.7 °C 49.5 °F /  9.7 °C 29.9in /  1012.8hPa ESE 7.6mph /  12.2km/h 12.7mph /  20.4km/h 76.8% 0in /  0.0mm
18:24 56.7 °F /  13.7 °C 49.8 °F /  9.9 °C 29.9in /  1012.8hPa ESE 6.9mph /  11.1km/h 11.8mph /  19km/h 77.7% 0.02in /  0.5mm
18:29 56.1 °F /  13.4 °C 49.8 °F /  9.9 °C 29.9in /  1013.1hPa ESE 6.5mph /  10.4km/h 12mph /  19.3km/h 79.3% 0.03in /  0.8mm
18:34 55.8 °F /  13.2 °C 50.2 °F /  10.1 °C 29.9in /  1013.1hPa ESE 6.2mph /  10km/h 12mph /  19.3km/h 81.4% 0.03in /  0.8mm
18:39 55.6 °F /  13.1 °C 50.4 °F /  10.2 °C 29.9in /  1013.1hPa SE 5.6mph /  9km/h 10.4mph /  16.7km/h 83% 0.03in /  0.8mm
18:44 55 °F /  12.8 °C 50.4 °F /  10.2 °C 29.9in /  1013.6hPa SSE 5.2mph /  8.4km/h 8mph /  12.9km/h 83.9% 0.03in /  0.8mm
18:49 54.9 °F /  12.7 °C 50.4 °F /  10.2 °C 29.9in /  1013.6hPa SSO 4.2mph /  6.8km/h 6.4mph /  10.3km/h 84.5% 0.04in /  1.0mm
18:54 54.9 °F /  12.7 °C 50.4 °F /  10.2 °C 29.9in /  1013.6hPa SO 3.6mph /  5.8km/h 7mph /  11.3km/h 85% 0.04in /  1.0mm
18:59 54.9 °F /  12.7 °C 50.7 °F /  10.4 °C 29.9in /  1013.8hPa SO 2.8mph /  4.5km/h 3.6mph /  5.8km/h 85.7% 0.04in /  1.0mm
19:04 54.9 °F /  12.7 °C 50.7 °F /  10.4 °C 29.9in /  1013.8hPa Oeste 2.4mph /  3.9km/h 5.9mph /  9.5km/h 86% 0.06in /  1.5mm
19:09 54.7 °F /  12.6 °C 50.5 °F /  10.3 °C 29.9in /  1013.8hPa Oeste 2.4mph /  3.9km/h 9.2mph /  14.8km/h 86% 0.06in /  1.5mm
19:14 54.1 °F /  12.3 °C 50 °F /  10 °C 29.9in /  1013.9hPa Oeste 2.4mph /  3.9km/h 9mph /  14.5km/h 86% 0.07in /  1.8mm
19:19 53.6 °F /  12 °C 49.5 °F /  9.7 °C 29.9in /  1013.9hPa Oeste 4.1mph /  6.6km/h 8.1mph /  13km/h 85.7% 0.08in /  2.0mm
19:24 52.7 °F /  11.5 °C 48.4 °F /  9.1 °C 29.9in /  1013.9hPa Oeste 5.2mph /  8.4km/h 8.5mph /  13.7km/h 85% 0.08in /  2.0mm
19:29 52.2 °F /  11.2 °C 47.8 °F /  8.8 °C 29.9in /  1014.0hPa SO 4.7mph /  7.5km/h 5.8mph /  9.3km/h 85.5% 0.07in /  1.8mm
19:34 52 °F /  11.1 °C 48 °F /  8.9 °C 29.9in /  1014.0hPa SO 4.3mph /  6.9km/h 5mph /  8km/h 86.6% 0.09in /  2.3mm
19:39 51.8 °F /  11 °C 48.2 °F /  9 °C 29.9in /  1014.0hPa OSO 2.9mph /  4.7km/h 4.6mph /  7.4km/h 87.4% 0.1in /  2.5mm
19:44 52 °F /  11.1 °C 48.6 °F /  9.2 °C 30in /  1014.2hPa OSO 2mph /  3.2km/h 5mph /  8km/h 88% 0.11in /  2.8mm
19:49 52 °F /  11.1 °C 48.6 °F /  9.2 °C 30in /  1014.2hPa Oeste 1.6mph /  2.6km/h 2.9mph /  4.7km/h 88% 0.11in /  2.8mm
19:54 52 °F /  11.1 °C 48.7 °F /  9.3 °C 30in /  1014.2hPa ONO 1.4mph /  2.2km/h 4.7mph /  7.6km/h 88.9% 0.11in /  2.8mm
19:59 51.8 °F /  11 °C 48.7 °F /  9.3 °C 30in /  1014.3hPa ONO 1.8mph /  2.9km/h 6.9mph /  11.1km/h 88.8% 0.11in /  2.8mm
20:04 51.6 °F /  10.9 °C 48.6 °F /  9.2 °C 30in /  1014.3hPa Oeste 2mph /  3.2km/h 7mph /  11.3km/h 89% 0.12in /  3.1mm
20:09 51.6 °F /  10.9 °C 48.6 °F /  9.2 °C 30in /  1014.3hPa Oeste 2.7mph /  4.3km/h 5mph /  8km/h 89% 0.11in /  2.9mm
20:14 51.4 °F /  10.8 °C 48.4 °F /  9.1 °C 30in /  1014.4hPa Oeste 3.1mph /  5km/h 5mph /  8km/h 89% 0.11in /  2.9mm
20:19 51.4 °F /  10.8 °C 48.7 °F /  9.3 °C 30in /  1014.4hPa ONO 2.4mph /  3.9km/h 5mph /  8km/h 90% 0.1in /  2.6mm
20:24 51.6 °F /  10.9 °C 48.7 °F /  9.3 °C 30in /  1014.4hPa NO 2mph /  3.2km/h 4mph /  6.4km/h 90% 0.09in /  2.4mm
20:29 51.6 °F /  10.9 °C 48.7 °F /  9.3 °C 30in /  1014.5hPa NO 2mph /  3.2km/h 4mph /  6.4km/h 90% 0.09in /  2.3mm
20:34 51.6 °F /  10.9 °C 48.9 °F /  9.4 °C 30in /  1014.5hPa NO 2mph /  3.2km/h 4mph /  6.4km/h 90.7% 0.08in /  2.0mm
20:39 51.6 °F /  10.9 °C 49.1 °F /  9.5 °C 30in /  1014.5hPa NO 1.6mph /  2.6km/h 4.6mph /  7.4km/h 91% 0.06in /  1.6mm
20:44 51.6 °F /  10.9 °C 49.1 °F /  9.5 °C 30in /  1014.8hPa North 1.4mph /  2.2km/h 5mph /  8km/h 91% 0.06in /  1.6mm
20:49 51.6 °F /  10.9 °C 49.1 °F /  9.5 °C 30in /  1014.8hPa NE 2.1mph /  3.3km/h 5.2mph /  8.4km/h 91% 0.06in /  1.5mm
20:54 51.6 °F /  10.9 °C 49.1 °F /  9.5 °C 30in /  1014.8hPa NE 2.4mph /  3.9km/h 5.2mph /  8.4km/h 91% 0.06in /  1.5mm
20:59 51.6 °F /  10.9 °C 49.3 °F /  9.6 °C 30in /  1014.9hPa NNE 2.9mph /  4.6km/h 5.9mph /  9.5km/h 91.3% 0.06in /  1.6mm
21:04 51.6 °F /  10.9 °C 49.5 °F /  9.7 °C 30in /  1014.9hPa ENE 3.1mph /  5km/h 6mph /  9.7km/h 92% 0.05in /  1.3mm
21:09 52 °F /  11.1 °C 49.6 °F /  9.8 °C 30in /  1014.9hPa ENE 3.1mph /  5km/h 5.9mph /  9.5km/h 92% 0.05in /  1.3mm
21:14 52 °F /  11.1 °C 49.6 °F /  9.8 °C 30in /  1014.9hPa Este 3.1mph /  5km/h 6mph /  9.7km/h 92% 0.04in /  1.0mm
21:19 52 °F /  11.1 °C 49.6 °F /  9.8 °C 30in /  1014.9hPa ENE 3mph /  4.8km/h 5mph /  8km/h 92% 0.04in /  1.0mm
21:24 52 °F /  11.1 °C 49.6 °F /  9.8 °C 30in /  1014.9hPa NE 2.9mph /  4.7km/h 5.8mph /  9.3km/h 92% 0.05in /  1.2mm
21:29 52 °F /  11.1 °C 49.8 °F /  9.9 °C 30in /  1015.0hPa ENE 2.5mph /  4.1km/h 6mph /  9.7km/h 92.2% 0.04in /  1.0mm
21:34 51.8 °F /  11 °C 49.6 °F /  9.8 °C 30in /  1015.0hPa NE 2.4mph /  3.9km/h 5mph /  8km/h 92.3% 0.04in /  1.0mm
21:39 51.6 °F /  10.9 °C 49.5 °F /  9.7 °C 30in /  1015.0hPa NE 2.7mph /  4.3km/h 5mph /  8km/h 92.5% 0.04in /  1.0mm
21:44 51.6 °F /  10.9 °C 49.6 °F /  9.8 °C 30in /  1015.1hPa NNE 2.9mph /  4.7km/h 4.6mph /  7.4km/h 93% 0.03in /  0.7mm
21:49 51.6 °F /  10.9 °C 49.6 °F /  9.8 °C 30in /  1015.1hPa North 2.6mph /  4.2km/h 5mph /  8km/h 93% 0.04in /  1.0mm
21:54 51.6 °F /  10.9 °C 49.6 °F /  9.8 °C 30in /  1015.1hPa North 2.4mph /  3.9km/h 5mph /  8km/h 93% 0.03in /  0.8mm
21:59 51.6 °F /  10.9 °C 49.6 °F /  9.8 °C 30in /  1015.2hPa NNE 2.7mph /  4.4km/h 5mph /  8km/h 93% 0.03in /  0.8mm
22:04 51.6 °F /  10.9 °C 49.6 °F /  9.8 °C 30in /  1015.2hPa North 2.9mph /  4.6km/h 5.8mph /  9.3km/h 93% 0.04in /  1.0mm
22:09 51.6 °F /  10.9 °C 49.6 °F /  9.8 °C 30in /  1015.2hPa North 3mph /  4.8km/h 6mph /  9.7km/h 93% 0.04in /  1.0mm
22:14 51.6 °F /  10.9 °C 49.6 °F /  9.8 °C 30in /  1015.3hPa NNE 3.1mph /  5km/h 6mph /  9.7km/h 93% 0.05in /  1.3mm
22:19 51.6 °F /  10.9 °C 49.8 °F /  9.9 °C 30in /  1015.3hPa NNE 3.1mph /  5km/h 6mph /  9.7km/h 93% 0.05in /  1.3mm
22:24 51.8 °F /  11 °C 50 °F /  10 °C 30in /  1015.3hPa NNE 3.1mph /  5km/h 7.4mph /  11.9km/h 93.9% 0.05in /  1.3mm
22:29 51.8 °F /  11 °C 50.2 °F /  10.1 °C 30in /  1015.4hPa NNE 3.4mph /  5.5km/h 7mph /  11.3km/h 94% 0.04in /  1.1mm
22:34 51.8 °F /  11 °C 50.2 °F /  10.1 °C 30in /  1015.4hPa NNE 3.6mph /  5.8km/h 7mph /  11.3km/h 94% 0.05in /  1.3mm
22:39 51.8 °F /  11 °C 50.2 °F /  10.1 °C 30in /  1015.4hPa NNE 4mph /  6.5km/h 8.1mph /  13km/h 94% 0.05in /  1.3mm
22:44 51.8 °F /  11 °C 50.2 °F /  10.1 °C 30in /  1015.5hPa NNE 4.3mph /  6.9km/h 8mph /  12.9km/h 94% 0.05in /  1.3mm
22:49 51.8 °F /  11 °C 50.2 °F /  10.1 °C 30in /  1015.5hPa NNE 4.3mph /  6.9km/h 8.1mph /  13km/h 94% 0.04in /  1.0mm
22:54 51.8 °F /  11 °C 50.2 °F /  10.1 °C 30in /  1015.5hPa NNE 4.3mph /  6.9km/h 9.2mph /  14.8km/h 94% 0.04in /  1.0mm
22:59 51.8 °F /  11 °C 50.2 °F /  10.1 °C 30in /  1015.6hPa NNE 4.5mph /  7.3km/h 9mph /  14.5km/h 94% 0.05in /  1.3mm
23:04 51.8 °F /  11 °C 50.2 °F /  10.1 °C 30in /  1015.6hPa NNE 4.7mph /  7.6km/h 8mph /  12.9km/h 94% 0.05in /  1.3mm
23:09 51.6 °F /  10.9 °C 50 °F /  10 °C 30in /  1015.6hPa NE 4.5mph /  7.2km/h 7.4mph /  11.9km/h 94% 0.04in /  1.0mm
23:14 51.6 °F /  10.9 °C 50 °F /  10 °C 30in /  1015.6hPa NE 4.3mph /  6.9km/h 7mph /  11.3km/h 94.1% 0.04in /  1.0mm
23:19 51.8 °F /  11 °C 50.4 °F /  10.2 °C 30in /  1015.6hPa ENE 3.6mph /  5.8km/h 4.6mph /  7.4km/h 95% 0.04in /  1.0mm
23:24 51.8 °F /  11 °C 50.4 °F /  10.2 °C 30in /  1015.6hPa ENE 3.1mph /  5km/h 4.7mph /  7.6km/h 95% 0.04in /  1.0mm
23:29 51.8 °F /  11 °C 50.4 °F /  10.2 °C 30in /  1015.6hPa Este 2.4mph /  3.9km/h 5mph /  8km/h 95% 0.04in /  1.0mm
23:34 51.8 °F /  11 °C 50.5 °F /  10.3 °C 30in /  1015.6hPa Este 2mph /  3.2km/h 4mph /  6.4km/h 95% 0.05in /  1.2mm
23:39 52 °F /  11.1 °C 50.5 °F /  10.3 °C 30in /  1015.6hPa Este 0.8mph /  1.3km/h 2mph /  3.2km/h 95% 0.04in /  1.0mm
23:44 52 °F /  11.1 °C 50.5 °F /  10.3 °C 30in /  1015.6hPa Calm     95% 0.04in /  1.0mm
23:49 51.8 °F /  11 °C 50.5 °F /  10.3 °C 30in /  1015.5hPa Calm     95% 0.06in /  1.5mm
23:54 51.6 °F /  10.9 °C 50.2 °F /  10.1 °C 30in /  1015.5hPa Calm     95% 0.06in /  1.5mm
23:59 51.6 °F /  10.9 °C 50.2 °F /  10.1 °C 30in /  1015.6hPa Calm   2.3mph /  3.7km/h 95% 0.06in /  1.5mm
Murcia-Puente Tocinos, España
Compliments of Weather Underground - 3 mb

La estación de MeteoMurcia.com, publica sus datos en los siguientes proyectos:

Weather Underground PWS IMURCIAP2 Meteoclimatic www.awekas.at

W3Counter
Web Analytics